Time;durP1;ratioP1;P1;durP2;ratioP2;P2;SDS_P1;SDS_P2;PMS_P1;PMS_P2;Temp;Humidity;BMP_temperature;BMP_pressure;BME280_temperature;BME280_humidity;BME280_pressure;Samples;Min_cycle;Max_cycle;Signal;HPM_P1;HPM_P2
2020/12/20 00:01:41;;;;;;;30.23;14.55;;;;;;;6.61;92.73;101082.09;5042761;28;20032;-74
2020/12/20 00:04:07;;;;;;;48.35;18.48;;;;;;;6.61;92.80;101087.50;5040230;28;20440;-72
2020/12/20 00:06:39;;;;;;;32.97;15.85;;;;;;;6.63;93.11;101079.97;5037966;28;20599;-74
2020/12/20 00:09:09;;;;;;;39.35;17.83;;;;;;;6.61;92.87;101075.84;5022458;28;20120;-73
2020/12/20 00:11:38;;;;;;;34.40;15.10;;;;;;;6.58;92.92;101073.63;5064309;28;20036;-72
2020/12/20 00:14:26;;;;;;;55.45;19.83;;;;;;;6.57;93.04;101070.06;5045454;28;20033;-73
2020/12/20 00:16:49;;;;;;;43.65;17.48;;;;;;;6.56;93.23;101068.44;5042512;28;20033;-74
2020/12/20 00:19:15;;;;;;;46.78;17.65;;;;;;;6.56;93.17;101054.88;5079344;28;20024;-73
2020/12/20 00:21:40;;;;;;;46.33;18.98;;;;;;;6.56;93.35;101070.31;5026172;28;20118;-73
2020/12/20 00:24:08;;;;;;;33.17;15.27;;;;;;;6.57;93.29;101075.47;5041713;28;20550;-73
2020/12/20 00:26:34;;;;;;;33.58;14.32;;;;;;;6.58;93.63;101081.75;5049973;28;20107;-73
2020/12/20 00:28:59;;;;;;;38.83;14.82;;;;;;;6.59;93.61;101084.19;5053295;28;20500;-73
2020/12/20 00:31:24;;;;;;;45.70;21.85;;;;;;;6.59;93.56;101091.50;5049040;28;20028;-73
2020/12/20 00:33:50;;;;;;;31.25;13.85;;;;;;;6.61;93.91;101098.34;5049744;28;20395;-73
2020/12/20 00:36:15;;;;;;;40.80;14.38;;;;;;;6.63;93.99;101081.84;5043231;28;20036;-73
2020/12/20 00:38:40;;;;;;;33.70;15.02;;;;;;;6.65;93.95;101090.53;5051129;28;20037;-73
2020/12/20 00:41:09;;;;;;;37.60;17.25;;;;;;;6.67;93.85;101083.81;5048448;28;20525;-74
2020/12/20 00:43:34;;;;;;;39.65;16.42;;;;;;;6.69;93.69;101094.44;5051632;28;20032;-72
2020/12/20 00:46:00;;;;;;;42.65;18.63;;;;;;;6.71;93.91;101086.03;5045747;28;20478;-73
2020/12/20 00:48:25;;;;;;;37.97;15.45;;;;;;;6.73;94.02;101081.22;5046162;28;20029;-73
2020/12/20 00:50:50;;;;;;;35.35;14.50;;;;;;;6.71;94.14;101088.75;5047420;28;20036;-73
2020/12/20 00:53:16;;;;;;;50.22;20.40;;;;;;;6.70;94.23;101095.25;5044360;28;20017;-73
2020/12/20 00:55:41;;;;;;;44.22;17.98;;;;;;;6.70;94.07;101079.00;5049226;28;20078;-73
2020/12/20 00:58:07;;;;;;;67.25;22.40;;;;;;;6.69;94.01;101090.91;5045891;28;20359;-73
2020/12/20 01:00:32;;;;;;;51.70;19.63;;;;;;;6.69;94.34;101091.72;5052189;28;20037;-72
2020/12/20 01:02:57;;;;;;;57.92;22.27;;;;;;;6.69;94.36;101093.63;5076455;28;20016;-73
2020/12/20 01:05:23;;;;;;;57.45;21.92;;;;;;;6.67;94.35;101099.25;5046701;28;20040;-73
2020/12/20 01:07:48;;;;;;;46.72;19.13;;;;;;;6.66;94.41;101098.44;5044859;28;20086;-73
2020/12/20 01:10:13;;;;;;;49.08;20.35;;;;;;;6.67;94.58;101101.97;5049637;28;20580;-73
2020/12/20 01:12:39;;;;;;;64.88;21.83;;;;;;;6.66;94.63;101103.84;5020310;28;20025;-73
2020/12/20 01:15:04;;;;;;;48.72;19.13;;;;;;;6.67;94.58;101102.78;5041540;28;20025;-73
2020/12/20 01:17:29;;;;;;;71.15;24.52;;;;;;;6.69;94.91;101104.44;5041605;28;20041;-73
2020/12/20 01:19:55;;;;;;;47.17;17.48;;;;;;;6.70;94.75;101111.50;5041440;28;20036;-73
2020/12/20 01:22:20;;;;;;;59.92;21.63;;;;;;;6.70;94.72;101111.50;5044348;28;20033;-73
2020/12/20 01:24:46;;;;;;;54.40;21.95;;;;;;;6.72;94.89;101112.09;5050421;28;20048;-73
2020/12/20 01:27:11;;;;;;;62.20;21.83;;;;;;;6.71;94.81;101107.72;5041823;28;20079;-73
2020/12/20 01:29:36;;;;;;;57.60;24.00;;;;;;;6.69;94.92;101110.69;5041968;28;20044;-73
2020/12/20 01:32:02;;;;;;;53.90;19.73;;;;;;;6.72;94.92;101107.50;5042353;28;20115;-73
2020/12/20 01:34:27;;;;;;;65.13;22.08;;;;;;;6.72;94.69;101093.94;5044161;28;20040;-73
2020/12/20 01:36:55;;;;;;;72.35;25.30;;;;;;;6.74;94.94;101096.41;5042778;28;20418;-73
2020/12/20 01:39:21;;;;;;;60.08;23.20;;;;;;;6.77;94.87;101109.50;5050609;28;20048;-72
2020/12/20 01:41:46;;;;;;;66.85;24.75;;;;;;;6.78;94.90;101103.81;5049344;28;20082;-73
2020/12/20 01:44:11;;;;;;;57.08;20.77;;;;;;;6.80;94.88;101111.72;5048988;28;20039;-73
2020/12/20 01:46:40;;;;;;;101.97;33.70;;;;;;;6.84;95.19;101113.69;5050961;28;20021;-72
2020/12/20 01:49:05;;;;;;;79.13;23.88;;;;;;;6.85;94.84;101114.53;5062180;28;20028;-73
2020/12/20 01:51:30;;;;;;;70.25;24.85;;;;;;;6.87;94.78;101117.81;5029630;28;20029;-72
2020/12/20 01:53:56;;;;;;;54.40;21.88;;;;;;;6.91;95.04;101118.16;5058678;28;20021;-73
2020/12/20 01:56:22;;;;;;;55.83;20.45;;;;;;;6.94;94.89;101107.66;5050179;28;20350;-73
2020/12/20 01:58:47;;;;;;;61.63;21.92;;;;;;;6.93;95.07;101116.88;5047523;28;20112;-73
2020/12/20 02:01:13;;;;;;;64.70;24.33;;;;;;;6.96;95.20;101105.53;5043446;28;20032;-73
2020/12/20 02:03:38;;;;;;;73.97;27.98;;;;;;;6.97;94.98;101106.34;5042596;28;20033;-73
2020/12/20 02:06:04;;;;;;;84.95;27.63;;;;;;;6.97;95.29;101115.31;5021183;28;20017;-73
2020/12/20 02:08:30;;;;;;;76.80;25.98;;;;;;;7.00;95.06;101119.41;5049991;28;20025;-72
2020/12/20 02:11:03;;;;;;;68.53;25.00;;;;;;;7.02;95.03;101115.41;5027280;28;20585;-72
2020/12/20 02:13:28;;;;;;;75.13;27.05;;;;;;;7.05;95.29;101109.50;5046338;28;20465;-72
2020/12/20 02:15:53;;;;;;;74.63;25.08;;;;;;;7.07;95.36;101112.78;5050102;28;20028;-73
2020/12/20 02:18:19;;;;;;;97.22;29.88;;;;;;;7.09;95.32;101109.81;5048771;28;20029;-73
2020/12/20 02:20:47;;;;;;;90.30;26.58;;;;;;;7.10;95.04;101115.00;5046373;28;20382;-72
2020/12/20 02:23:12;;;;;;;84.80;27.85;;;;;;;7.11;95.05;101113.94;5047297;28;20037;-73
2020/12/20 02:25:39;;;;;;;64.10;23.50;;;;;;;7.13;94.90;101118.31;5048023;28;20027;-73
2020/12/20 02:28:05;;;;;;;73.60;25.10;;;;;;;7.16;95.23;101104.25;5031359;28;20040;-72
2020/12/20 02:30:30;;;;;;;75.78;24.90;;;;;;;7.14;95.14;101112.63;5050099;28;20033;-72
2020/12/20 02:32:55;;;;;;;84.45;27.73;;;;;;;7.14;95.07;101117.25;5042975;28;20033;-72
2020/12/20 02:35:21;;;;;;;94.13;30.25;;;;;;;7.15;95.25;101113.44;5040190;28;20028;-72
2020/12/20 02:37:46;;;;;;;73.47;23.17;;;;;;;7.16;94.94;101109.69;5045390;28;20033;-72
2020/12/20 02:40:12;;;;;;;85.43;29.45;;;;;;;7.17;95.14;101114.03;5037725;28;20049;-72
2020/12/20 02:42:37;;;;;;;82.43;28.58;;;;;;;7.19;94.63;101109.19;5044106;28;20079;-73
2020/12/20 02:45:02;;;;;;;86.15;28.27;;;;;;;7.18;95.01;101113.00;5042835;28;20036;-72
2020/12/20 02:47:28;;;;;;;63.72;22.23;;;;;;;7.17;94.98;101114.03;5042799;28;20063;-72
2020/12/20 02:49:53;;;;;;;69.43;25.42;;;;;;;7.14;95.01;101106.38;5041482;28;20195;-73
2020/12/20 02:52:19;;;;;;;76.63;24.25;;;;;;;7.10;94.99;101115.00;5040917;28;20466;-73
2020/12/20 02:54:44;;;;;;;61.33;21.38;;;;;;;7.10;95.22;101106.88;5042205;28;20211;-73
2020/12/20 02:57:10;;;;;;;74.60;26.00;;;;;;;7.10;94.92;101117.72;5043729;28;20029;-72
2020/12/20 02:59:35;;;;;;;74.22;26.55;;;;;;;7.14;94.94;101119.94;5046778;28;20044;-72
2020/12/20 03:02:00;;;;;;;56.15;21.40;;;;;;;7.15;95.17;101130.56;5037955;28;20506;-73
2020/12/20 03:04:26;;;;;;;61.60;24.48;;;;;;;7.16;94.74;101120.53;5042875;28;20032;-72
2020/12/20 03:06:51;;;;;;;75.40;25.85;;;;;;;7.17;94.99;101116.75;5037787;28;20024;-72
2020/12/20 03:09:17;;;;;;;86.82;29.70;;;;;;;7.17;95.32;101122.16;5063783;28;20029;-73
2020/12/20 03:11:42;;;;;;;83.20;27.85;;;;;;;7.18;95.30;101118.41;5042576;28;20029;-73
2020/12/20 03:14:07;;;;;;;69.32;24.30;;;;;;;7.19;95.07;101125.47;5042372;28;20029;-73
2020/12/20 03:16:33;;;;;;;56.10;19.90;;;;;;;7.20;94.83;101122.53;5040886;28;20036;-72
2020/12/20 03:18:58;;;;;;;70.07;24.20;;;;;;;7.20;95.17;101127.09;5037781;28;20039;-72
2020/12/20 03:21:24;;;;;;;82.05;27.70;;;;;;;7.20;94.76;101124.38;5044371;28;20033;-73
2020/12/20 03:23:49;;;;;;;68.15;24.40;;;;;;;7.22;94.94;101141.25;5043603;28;20021;-73
2020/12/20 03:26:14;;;;;;;73.72;24.27;;;;;;;7.22;95.06;101147.50;5041553;28;20044;-72
2020/12/20 03:28:40;;;;;;;64.05;23.73;;;;;;;7.22;95.20;101144.78;5050692;28;20028;-73
2020/12/20 03:31:05;;;;;;;57.85;22.63;;;;;;;7.23;95.24;101143.72;5047475;28;20051;-72
2020/12/20 03:33:31;;;;;;;63.90;26.08;;;;;;;7.25;95.03;101147.00;5045728;28;20025;-73
2020/12/20 03:35:56;;;;;;;72.22;28.10;;;;;;;7.27;94.93;101141.34;5042801;28;20483;-72
2020/12/20 03:38:21;;;;;;;55.92;21.48;;;;;;;7.27;95.14;101133.22;5049883;28;20498;-72
2020/12/20 03:40:47;;;;;;;65.15;21.90;;;;;;;7.29;94.95;101136.50;5042992;28;20021;-73
2020/12/20 03:43:12;;;;;;;47.10;18.48;;;;;;;7.28;94.80;101132.13;5047602;28;20032;-73
2020/12/20 03:45:37;;;;;;;70.45;25.00;;;;;;;7.27;94.86;101144.06;5045435;28;21643;-72
2020/12/20 03:48:03;;;;;;;46.20;16.27;;;;;;;7.25;95.07;101129.91;5050334;28;20032;-73
2020/12/20 03:50:32;;;;;;;56.03;21.35;;;;;;;7.21;95.09;101145.03;5044745;28;20076;-72
2020/12/20 03:52:57;;;;;;;71.72;26.13;;;;;;;7.17;95.04;101138.44;5031429;28;20021;-72
2020/12/20 03:55:23;;;;;;;64.78;25.50;;;;;;;7.11;95.17;101141.06;5046154;28;20059;-73
2020/12/20 03:57:48;;;;;;;65.95;27.27;;;;;;;7.08;95.06;101136.13;5047854;28;20029;-72
2020/12/20 04:00:13;;;;;;;71.88;26.30;;;;;;;7.07;94.94;101152.63;5041563;28;20505;-72
2020/12/20 04:02:39;;;;;;;60.97;25.08;;;;;;;7.06;95.33;101157.22;5039599;28;20025;-73
2020/12/20 04:05:04;;;;;;;58.58;22.42;;;;;;;7.05;95.12;101158.28;5041905;28;20075;-72
2020/12/20 04:07:29;;;;;;;73.95;26.50;;;;;;;7.03;95.07;101171.25;5040980;28;20455;-73
2020/12/20 04:09:55;;;;;;;74.22;25.60;;;;;;;7.02;95.11;101174.22;5037885;28;20025;-72
2020/12/20 04:12:21;;;;;;;58.28;23.50;;;;;;;7.02;95.22;101180.47;5049304;28;20017;-72
2020/12/20 04:14:47;;;;;;;61.53;24.30;;;;;;;7.02;95.22;101164.19;5046696;28;20059;-72
2020/12/20 04:17:12;;;;;;;57.78;23.77;;;;;;;7.02;95.39;101175.03;5040916;28;20090;-72
2020/12/20 04:19:37;;;;;;;67.35;26.10;;;;;;;7.06;95.00;101169.94;5047368;28;20431;-73
2020/12/20 04:22:03;;;;;;;53.10;23.92;;;;;;;7.08;95.39;101157.81;5046723;28;20025;-73
2020/12/20 04:24:28;;;;;;;58.97;26.02;;;;;;;7.13;95.14;101158.97;5050544;28;20029;-73
2020/12/20 04:26:54;;;;;;;65.18;26.50;;;;;;;7.14;95.44;101166.03;5042672;28;20604;-72
2020/12/20 04:29:19;;;;;;;61.38;24.25;;;;;;;7.13;95.16;101157.09;5043238;28;20024;-74
2020/12/20 04:31:44;;;;;;;55.00;23.00;;;;;;;7.12;95.16;101152.75;5048336;28;20032;-73
2020/12/20 04:34:10;;;;;;;74.18;27.90;;;;;;;7.11;94.96;101146.47;5048293;28;20032;-72
2020/12/20 04:36:35;;;;;;;76.20;27.20;;;;;;;7.14;94.82;101149.78;5029224;28;20110;-73
2020/12/20 04:39:00;;;;;;;52.58;21.88;;;;;;;7.14;95.04;101156.00;5050584;28;20045;-72
2020/12/20 04:41:26;;;;;;;53.35;23.10;;;;;;;7.14;94.87;101156.00;5049981;28;20040;-73
2020/12/20 04:43:51;;;;;;;71.47;29.40;;;;;;;7.15;95.12;101154.13;5053102;28;20032;-74
2020/12/20 04:46:17;;;;;;;57.50;23.42;;;;;;;7.14;95.15;101152.47;5040916;28;20063;-73
2020/12/20 04:48:44;;;;;;;61.70;24.45;;;;;;;7.13;94.79;101150.84;5043502;28;20021;-73
2020/12/20 04:51:09;;;;;;;57.88;23.92;;;;;;;7.11;95.05;101160.03;5041705;28;20467;-74
2020/12/20 04:53:35;;;;;;;52.25;21.73;;;;;;;7.14;94.76;101157.91;5077665;28;20025;-74
2020/12/20 04:56:02;;;;;;;61.28;25.63;;;;;;;7.14;94.96;101155.19;5048855;28;20021;-74
2020/12/20 04:58:28;;;;;;;65.75;25.02;;;;;;;7.15;94.94;101173.09;5031176;28;20025;-73
2020/12/20 05:00:53;;;;;;;65.53;26.10;;;;;;;7.14;94.95;101156.00;5039861;28;20387;-73
2020/12/20 05:03:19;;;;;;;61.97;24.92;;;;;;;7.17;95.02;101165.56;5047181;28;20035;-73
2020/12/20 05:05:44;;;;;;;60.72;24.95;;;;;;;7.18;95.37;101156.38;5049251;28;20033;-73
2020/12/20 05:08:10;;;;;;;49.97;19.67;;;;;;;7.19;94.89;101161.53;5048723;28;20094;-74
2020/12/20 05:10:39;;;;;;;59.83;26.63;;;;;;;7.19;95.10;101164.25;5046110;28;20044;-73
2020/12/20 05:13:05;;;;;;;53.80;21.75;;;;;;;7.18;95.03;101167.22;5042309;28;20025;-73
2020/12/20 05:15:30;;;;;;;49.25;22.00;;;;;;;7.17;94.61;101179.09;5043664;28;20021;-73
2020/12/20 05:18:12;;;;;;;48.30;18.95;;;;;;;7.17;94.75;101171.78;5052817;28;20025;-73
2020/12/20 05:20:39;;;;;;;52.38;23.52;;;;;;;7.16;94.98;101180.19;5076252;28;20482;-73
2020/12/20 05:23:05;;;;;;;59.10;22.23;;;;;;;7.14;95.03;101171.47;5045562;28;20474;-73
2020/12/20 05:25:34;;;;;;;51.25;21.15;;;;;;;7.13;94.54;101165.22;5041916;28;20017;-73
2020/12/20 05:28:07;;;;;;;67.10;26.77;;;;;;;7.15;94.96;101173.09;5050158;28;20475;-74
2020/12/20 05:30:32;;;;;;;59.55;27.67;;;;;;;7.16;94.93;101175.59;5045512;28;20037;-74
2020/12/20 05:32:57;;;;;;;55.42;22.60;;;;;;;7.19;94.72;101187.84;5048525;28;20025;-74
2020/12/20 05:35:23;;;;;;;47.97;20.83;;;;;;;7.21;94.90;101188.44;5046744;28;20421;-72
2020/12/20 05:37:48;;;;;;;41.55;19.75;;;;;;;7.25;94.88;101184.16;5026648;28;20025;-72
2020/12/20 05:40:30;;;;;;;55.08;23.60;;;;;;;7.24;94.58;101201.50;5049021;28;20041;-72
2020/12/20 05:43:00;;;;;;;44.45;21.33;;;;;;;7.24;94.77;101199.59;5038736;28;20064;-72
2020/12/20 05:45:29;;;;;;;45.60;19.40;;;;;;;7.23;94.85;101200.69;5040139;28;20039;-72
2020/12/20 05:47:55;;;;;;;39.88;19.30;;;;;;;7.24;94.44;101199.59;5032660;28;20158;-72
2020/12/20 05:50:20;;;;;;;42.80;17.35;;;;;;;7.25;94.69;101195.81;5041383;28;20021;-72
2020/12/20 05:52:59;;;;;;;39.10;17.27;;;;;;;7.26;94.70;101183.09;5031601;28;20112;-72
2020/12/20 05:55:33;;;;;;;44.88;20.55;;;;;;;7.26;94.75;101191.25;5038011;28;20045;-72
2020/12/20 05:58:06;;;;;;;36.20;16.40;;;;;;;7.28;94.45;101181.81;5048313;28;20356;-72
2020/12/20 06:00:32;;;;;;;58.13;23.77;;;;;;;7.30;94.51;101187.78;5060349;28;20033;-72
2020/12/20 06:02:57;;;;;;;49.78;22.02;;;;;;;7.32;94.34;101174.00;5051457;28;20037;-72
2020/12/20 06:05:22;;;;;;;49.22;21.15;;;;;;;7.34;94.25;101193.56;5021587;28;20025;-71
2020/12/20 06:07:48;;;;;;;50.63;23.98;;;;;;;7.30;94.23;101190.50;5030387;28;20036;-72
2020/12/20 06:10:15;;;;;;;55.40;23.88;;;;;;;7.26;94.32;101186.63;5027703;28;20075;-72
2020/12/20 06:12:40;;;;;;;58.08;23.08;;;;;;;7.24;94.33;101193.38;5037105;28;20090;-72
2020/12/20 06:15:05;;;;;;;39.13;16.42;;;;;;;7.23;94.29;101188.97;5029814;28;20040;-72
2020/12/20 06:17:31;;;;;;;35.70;17.75;;;;;;;7.21;94.42;101188.44;5047827;28;20485;-72
2020/12/20 06:19:56;;;;;;;44.78;17.83;;;;;;;7.22;94.10;101192.78;5061209;28;20043;-72
2020/12/20 06:22:22;;;;;;;54.10;22.33;;;;;;;7.20;94.25;101205.75;5049144;28;20440;-72
2020/12/20 06:24:50;;;;;;;37.47;15.50;;;;;;;7.20;94.22;101184.91;5044829;28;20119;-72
2020/12/20 06:27:16;;;;;;;54.90;23.08;;;;;;;7.21;94.27;101199.28;5031117;28;20041;-72
2020/12/20 06:29:48;;;;;;;60.47;23.67;;;;;;;7.20;94.39;101203.03;5063719;28;20484;-72
2020/12/20 06:32:16;;;;;;;56.38;19.48;;;;;;;7.16;94.17;101201.88;5039950;28;20111;-71
2020/12/20 06:34:42;;;;;;;57.10;22.48;;;;;;;7.15;94.07;101206.47;5038555;28;21879;-72
2020/12/20 06:37:08;;;;;;;36.17;15.70;;;;;;;7.11;94.22;101208.84;5047482;28;20028;-72
2020/12/20 06:39:37;;;;;;;60.03;23.65;;;;;;;7.09;94.12;101196.56;5025751;28;20047;-72
2020/12/20 06:42:03;;;;;;;58.53;22.88;;;;;;;7.08;94.41;101195.75;5041084;28;20109;-72
2020/12/20 06:44:28;;;;;;;49.83;22.98;;;;;;;7.07;93.98;101209.56;5058849;28;20020;-73
2020/12/20 06:46:54;;;;;;;47.58;21.17;;;;;;;7.07;94.21;101202.25;5044800;28;20025;-73
2020/12/20 06:49:41;;;;;;;47.67;21.05;;;;;;;7.06;94.42;101208.72;5040688;28;20025;-73
2020/12/20 06:52:28;;;;;;;50.85;20.42;;;;;;;7.05;94.22;101201.66;5038229;28;20029;-73
2020/12/20 06:55:01;;;;;;;36.15;16.77;;;;;;;7.06;94.17;101208.72;5046883;28;20127;-73
2020/12/20 06:57:26;;;;;;;42.22;19.30;;;;;;;7.09;94.13;101202.00;5047874;28;20029;-73
2020/12/20 06:59:52;;;;;;;52.05;20.50;;;;;;;7.09;94.16;101215.56;5038208;28;20098;-73
2020/12/20 07:02:44;;;;;;;54.00;23.08;;;;;;;7.08;94.42;101214.75;5040366;28;20025;-73
2020/12/20 07:05:48;;;;;;;55.07;22.97;;;;;;;7.08;94.00;101214.75;5037919;28;20082;-74
2020/12/20 07:08:27;;;;;;;46.15;21.88;;;;;;;7.10;94.60;101215.31;5036056;28;20060;-74
2020/12/20 07:10:56;;;;;;;51.80;22.95;;;;;;;7.09;94.33;101210.97;5042153;28;20057;-73
2020/12/20 07:13:37;;;;;;;42.35;17.77;;;;;;;7.09;94.33;101219.13;5032776;28;20052;-73
2020/12/20 07:16:24;;;;;;;54.38;21.95;;;;;;;7.07;94.36;101213.09;5035796;28;20037;-73
2020/12/20 07:18:57;;;;;;;35.50;17.75;;;;;;;7.06;94.17;101214.16;5041245;28;20111;-73
2020/12/20 07:21:22;;;;;;;;;;;;;;;7.04;94.08;101216.28;5044219;28;20021;-74
2020/12/20 07:23:49;;;;;;;37.03;15.52;;;;;;;7.02;94.25;101221.13;5046085;28;20255;-73
2020/12/20 07:26:14;;;;;;;55.05;20.42;;;;;;;7.00;94.13;101209.69;5045277;28;20032;-73
2020/12/20 07:28:40;;;;;;;66.32;25.10;;;;;;;7.00;94.16;101219.72;5025857;28;20104;-73
2020/12/20 07:31:15;;;;;;;41.08;18.05;;;;;;;6.98;94.13;101233.50;5043488;28;20032;-73
2020/12/20 07:33:41;;;;;;;48.38;18.42;;;;;;;6.98;94.44;101238.09;5045715;28;20071;-72
2020/12/20 07:36:06;;;;;;;56.30;22.08;;;;;;;7.00;94.14;101230.56;5044449;28;20045;-72
2020/12/20 07:38:32;;;;;;;42.13;18.48;;;;;;;6.97;94.52;101242.69;5042774;28;20049;-73
2020/12/20 07:40:57;;;;;;;45.40;19.95;;;;;;;6.99;94.40;101251.44;5041348;28;20094;-73
2020/12/20 07:43:23;;;;;;;45.50;21.02;;;;;;;7.01;94.28;101246.59;5027453;28;20043;-73
2020/12/20 07:46:00;;;;;;;40.45;16.08;;;;;;;7.02;94.41;101261.78;5047694;28;20033;-72
2020/12/20 07:48:26;;;;;;;40.90;20.23;;;;;;;7.03;94.47;101263.44;5035740;28;20041;-73
2020/12/20 07:50:52;;;;;;;45.60;20.10;;;;;;;7.03;94.28;101258.00;5037481;28;20044;-72
2020/12/20 07:53:18;;;;;;;49.58;20.55;;;;;;;7.02;94.24;101242.81;5044501;28;20040;-73
2020/12/20 07:55:49;;;;;;;46.78;20.85;;;;;;;7.03;94.24;101258.00;5042258;28;20032;-73
2020/12/20 07:58:17;;;;;;;46.50;19.23;;;;;;;7.06;94.66;101257.53;5049172;28;20029;-72
2020/12/20 08:00:44;;;;;;;42.38;18.60;;;;;;;7.04;94.49;101261.56;5041855;28;20319;-73
2020/12/20 08:03:12;;;;;;;60.85;23.70;;;;;;;7.06;94.20;101257.53;5048901;28;20025;-72
2020/12/20 08:05:38;;;;;;;47.33;18.92;;;;;;;7.06;94.22;101260.22;5046554;28;20082;-73
2020/12/20 08:08:03;;;;;;;52.83;20.23;;;;;;;7.07;94.26;101264.63;5046134;28;20394;-73
2020/12/20 08:10:29;;;;;;;53.33;23.35;;;;;;;7.08;94.54;101270.84;5034225;28;20029;-74
2020/12/20 08:12:54;;;;;;;32.75;13.20;;;;;;;7.05;94.47;101269.44;5047083;28;20041;-73
2020/12/20 08:15:19;;;;;;;51.22;21.25;;;;;;;7.06;94.57;101260.22;5049748;28;20052;-74
2020/12/20 08:17:46;;;;;;;55.78;23.80;;;;;;;7.07;94.46;101270.03;5050992;28;20033;-74
2020/12/20 08:20:12;;;;;;;34.28;14.70;;;;;;;7.07;94.17;101264.63;5030135;28;20071;-73
2020/12/20 08:22:37;;;;;;;35.40;14.50;;;;;;;7.07;94.38;101261.91;5015057;28;20045;-73
2020/12/20 08:25:09;;;;;;;41.55;18.42;;;;;;;7.09;94.21;101267.91;5036434;28;20029;-74
2020/12/20 08:27:44;;;;;;;61.33;25.17;;;;;;;7.08;94.42;101271.69;5033765;28;20036;-74
2020/12/20 08:30:11;;;;;;;38.10;20.20;;;;;;;7.07;94.39;101275.47;5047390;28;20082;-74
2020/12/20 08:32:40;;;;;;;40.42;19.05;;;;;;;7.07;94.34;101280.06;5044053;28;20025;-74
2020/12/20 08:35:20;;;;;;;44.55;20.17;;;;;;;7.07;94.11;101280.88;5040777;28;20032;-73
2020/12/20 08:37:54;;;;;;;50.55;21.85;;;;;;;7.08;94.22;101289.84;5031993;28;20086;-71
2020/12/20 08:40:20;;;;;;;49.25;20.90;;;;;;;7.07;94.25;101283.59;5034572;28;20366;-71
2020/12/20 08:42:46;;;;;;;44.28;21.42;;;;;;;7.07;94.11;101291.72;5025549;28;20032;-71
2020/12/20 08:45:19;;;;;;;46.42;21.13;;;;;;;7.07;94.11;101278.16;5042943;28;20149;-72
2020/12/20 08:47:44;;;;;;;;;;;;;;;7.10;94.31;101285.00;5042959;28;20032;-71
2020/12/20 08:50:11;;;;;;;50.67;20.92;;;;;;;7.09;94.04;101289.59;5042895;28;19921;-72
2020/12/20 08:52:36;;;;;;;47.33;20.42;;;;;;;7.11;94.21;101303.72;5044193;28;20025;-72
2020/12/20 08:55:02;;;;;;;47.28;18.95;;;;;;;7.15;94.20;101297.81;5045816;28;20481;-72
2020/12/20 08:57:29;;;;;;;47.58;20.23;;;;;;;7.16;93.82;101299.50;5080048;28;20024;-72
2020/12/20 08:59:54;;;;;;;46.15;18.67;;;;;;;7.17;93.92;101314.69;5022629;28;20056;-72
2020/12/20 09:02:22;;;;;;;41.97;19.88;;;;;;;7.18;94.26;101313.66;5046384;28;20059;-73
2020/12/20 09:04:55;;;;;;;51.83;21.98;;;;;;;7.19;94.23;101315.28;5038760;28;20462;-72
2020/12/20 09:07:40;;;;;;;42.13;20.10;;;;;;;7.20;94.08;101289.81;5038897;28;20108;-72
2020/12/20 09:10:12;;;;;;;46.78;18.75;;;;;;;7.22;93.77;101303.97;5063852;28;20428;-72
2020/12/20 09:12:45;;;;;;;47.67;21.55;;;;;;;7.21;93.75;101303.13;5039685;28;20156;-72
2020/12/20 09:15:11;;;;;;;51.70;22.20;;;;;;;7.21;93.96;101299.59;5035918;28;20030;-72
2020/12/20 09:17:37;;;;;;;41.50;18.60;;;;;;;7.21;93.60;101305.03;5037272;28;20372;-72
2020/12/20 09:20:04;;;;;;;47.60;19.60;;;;;;;7.23;93.66;101311.03;5042106;28;20029;-72
2020/12/20 09:22:38;;;;;;;47.67;19.48;;;;;;;7.23;94.00;101294.75;5035819;28;20044;-72
2020/12/20 09:25:04;;;;;;;41.30;18.30;;;;;;;7.24;93.68;101299.94;5045451;28;20036;-74
2020/12/20 09:27:29;;;;;;;41.63;20.17;;;;;;;7.25;93.61;101295.34;5043311;28;20040;-74
2020/12/20 09:29:55;;;;;;;38.65;18.77;;;;;;;7.26;94.00;101310.56;5044981;28;20033;-71
2020/12/20 09:32:20;;;;;;;34.35;15.90;;;;;;;7.28;94.00;101319.25;5043534;28;20528;-72
2020/12/20 09:34:46;;;;;;;32.30;14.38;;;;;;;7.30;93.69;101317.16;5041942;28;20021;-74
2020/12/20 09:37:11;;;;;;;42.78;18.00;;;;;;;7.31;93.90;101314.22;5045459;28;20024;-72
2020/12/20 09:39:56;;;;;;;41.05;18.05;;;;;;;7.32;93.52;101326.69;5055392;28;20556;-72
2020/12/20 09:42:21;;;;;;;28.58;13.43;;;;;;;7.32;93.43;101323.16;5043554;28;20094;-72
2020/12/20 09:44:46;;;;;;;46.08;20.92;;;;;;;7.31;93.45;101319.63;5042613;28;20021;-72
2020/12/20 09:47:12;;;;;;;33.10;16.55;;;;;;;7.31;93.36;101318.78;5042956;28;20386;-72
2020/12/20 09:49:37;;;;;;;36.40;16.60;;;;;;;7.32;93.34;101312.31;5043335;28;20028;-73
2020/12/20 09:52:03;;;;;;;33.00;16.08;;;;;;;7.32;93.18;101315.03;5044722;28;20028;-73
2020/12/20 09:54:29;;;;;;;26.15;13.40;;;;;;;7.34;93.52;101315.63;5042518;28;20040;-74
2020/12/20 09:56:54;;;;;;;39.13;16.77;;;;;;;7.34;93.16;101318.34;5045346;28;20528;-73
2020/12/20 09:59:19;;;;;;;41.83;19.58;;;;;;;7.34;93.15;101319.16;5040975;28;20036;-74
2020/12/20 10:01:45;;;;;;;28.77;14.32;;;;;;;7.35;93.20;101314.56;5038895;28;20478;-74
2020/12/20 10:04:10;;;;;;;42.17;20.08;;;;;;;7.35;93.29;101314.56;5034073;28;20048;-73
2020/12/20 10:06:35;;;;;;;35.83;17.52;;;;;;;7.38;93.14;101314.06;5045473;28;20351;-75
2020/12/20 10:09:01;;;;;;;44.67;17.35;;;;;;;7.39;93.37;101317.59;5037041;28;20033;-73
2020/12/20 10:11:26;;;;;;;34.13;16.25;;;;;;;7.41;92.99;101315.47;5039323;28;20036;-75
2020/12/20 10:13:52;;;;;;;37.88;16.58;;;;;;;7.41;92.99;101313.59;5040605;28;20037;-73
2020/12/20 10:16:18;;;;;;;43.58;18.17;;;;;;;7.40;92.75;101322.78;5044285;28;20069;-75
2020/12/20 10:18:45;;;;;;;41.15;18.13;;;;;;;7.40;92.77;101320.09;5043017;28;20040;-75
2020/12/20 10:21:12;;;;;;;34.17;15.50;;;;;;;7.40;93.15;101320.09;5038088;28;20119;-74
2020/12/20 10:23:38;;;;;;;41.58;18.92;;;;;;;7.39;92.83;101318.41;5037357;28;21205;-75
2020/12/20 10:26:03;;;;;;;41.90;19.83;;;;;;;7.39;92.81;101313.00;5040334;28;20070;-74
2020/12/20 10:28:29;;;;;;;43.22;17.33;;;;;;;7.42;93.17;101334.25;5049098;28;20029;-74
2020/12/20 10:30:54;;;;;;;37.28;19.38;;;;;;;7.44;93.00;101328.56;5039116;28;20298;-75
2020/12/20 10:33:19;;;;;;;36.53;18.05;;;;;;;7.45;93.04;101324.81;5034426;28;20040;-76
2020/12/20 10:35:45;;;;;;;40.42;16.60;;;;;;;7.48;92.69;101338.69;5072234;28;20041;-75
2020/12/20 10:38:10;;;;;;;40.80;19.05;;;;;;;7.47;92.73;101318.03;5037179;28;20039;-76
2020/12/20 10:40:36;;;;;;;32.50;16.25;;;;;;;7.46;92.60;101321.00;5035239;28;20028;-74
2020/12/20 10:43:01;;;;;;;42.15;18.70;;;;;;;7.44;92.79;101323.13;5037585;28;20458;-76
2020/12/20 10:45:26;;;;;;;35.90;15.07;;;;;;;7.41;92.54;101337.19;5040579;28;20025;-75
2020/12/20 10:47:52;;;;;;;30.52;16.45;;;;;;;7.40;92.47;101316.56;5029072;28;20025;-76
2020/12/20 10:50:17;;;;;;;33.25;12.95;;;;;;;7.38;92.30;101314.06;5044799;28;20101;-75
2020/12/20 10:52:43;;;;;;;29.08;13.23;;;;;;;7.38;92.57;101324.91;5029972;28;20032;-76
2020/12/20 10:55:08;;;;;;;35.03;17.33;;;;;;;7.39;92.43;101326.56;5043931;28;20204;-74
2020/12/20 10:57:34;;;;;;;35.10;17.50;;;;;;;7.38;92.09;101314.06;5047471;28;20024;-74
2020/12/20 11:00:00;;;;;;;35.97;16.38;;;;;;;7.40;92.51;101311.13;5041821;28;20036;-76
2020/12/20 11:02:25;;;;;;;35.88;16.52;;;;;;;7.38;92.22;101314.06;5039912;28;20036;-75
2020/12/20 11:04:50;;;;;;;37.78;17.60;;;;;;;7.39;92.67;101314.88;5039595;28;20036;-74
2020/12/20 11:07:16;;;;;;;27.65;13.55;;;;;;;7.40;92.33;101317.38;5041968;28;20036;-74
2020/12/20 11:09:42;;;;;;;34.90;16.67;;;;;;;7.39;92.14;101310.28;5029564;28;20459;-71
2020/12/20 11:12:08;;;;;;;27.27;12.45;;;;;;;7.37;92.67;101309.72;5044323;28;20029;-73
2020/12/20 11:14:33;;;;;;;36.58;15.77;;;;;;;7.37;92.33;101317.03;5021415;28;20029;-76
2020/12/20 11:16:59;;;;;;;36.63;17.58;;;;;;;7.35;92.41;101314.56;5042626;28;20032;-75